createdAt,value
2018-12-25T00:00:16.813Z,9.30
2018-12-25T00:03:19.458Z,9.30
2018-12-25T00:06:19.639Z,9.30
2018-12-25T00:09:21.118Z,9.20
2018-12-25T00:12:20.390Z,9.20
2018-12-25T00:15:19.884Z,9.20
2018-12-25T00:18:19.521Z,9.20
2018-12-25T00:21:19.427Z,9.20
2018-12-25T00:24:19.302Z,9.10
2018-12-25T00:27:19.881Z,9.10
2018-12-25T00:30:19.176Z,9.00
2018-12-25T00:33:19.123Z,9.00
2018-12-25T00:36:18.430Z,9.00
2018-12-25T00:39:18.650Z,9.00
2018-12-25T00:42:18.505Z,9.00
2018-12-25T00:45:21.940Z,9.00
2018-12-25T00:48:22.863Z,8.90
2018-12-25T00:51:35.033Z,8.90
2018-12-25T00:54:34.979Z,8.80
2018-12-25T00:57:35.103Z,8.80
2018-12-25T01:00:36.242Z,8.80
2018-12-25T01:03:37.806Z,8.70
2018-12-25T01:06:37.366Z,8.70
2018-12-25T01:09:36.524Z,8.70
2018-12-25T01:12:36.887Z,8.70
2018-12-25T01:15:36.330Z,8.60
2018-12-25T01:18:38.462Z,8.60
2018-12-25T01:21:38.449Z,8.60
2018-12-25T01:24:37.662Z,8.60
2018-12-25T01:27:38.841Z,8.50
2018-12-25T01:30:38.314Z,8.50
2018-12-25T01:33:37.887Z,8.40
2018-12-25T01:36:38.417Z,8.40
2018-12-25T01:39:43.937Z,8.40
2018-12-25T01:42:44.175Z,8.40
2018-12-25T01:45:45.252Z,8.40
2018-12-25T01:48:45.089Z,8.40
2018-12-25T01:51:48.990Z,8.30
2018-12-25T01:54:48.173Z,8.30
2018-12-25T01:57:54.436Z,8.30
2018-12-25T02:00:53.595Z,8.20
2018-12-25T02:03:53.953Z,8.20
2018-12-25T02:06:56.415Z,8.20
2018-12-25T02:09:55.854Z,8.20
2018-12-25T02:12:58.912Z,8.20
2018-12-25T02:15:59.234Z,8.10
2018-12-25T02:19:03.149Z,8.10
2018-12-25T02:22:02.464Z,8.10
2018-12-25T02:25:05.844Z,8.10
2018-12-25T02:28:05.224Z,8.00
2018-12-25T02:31:04.743Z,8.00
2018-12-25T02:34:04.114Z,8.00
2018-12-25T02:37:08.490Z,7.90
2018-12-25T02:40:07.734Z,7.90
2018-12-25T02:43:10.122Z,7.90
2018-12-25T02:46:10.808Z,7.80
2018-12-25T02:49:10.901Z,7.80
2018-12-25T02:52:12.627Z,7.80
2018-12-25T02:55:12.046Z,7.80
2018-12-25T02:58:13.426Z,7.80
2018-12-25T03:01:12.815Z,7.70
2018-12-25T03:04:14.334Z,7.70
2018-12-25T03:07:13.794Z,7.70
2018-12-25T03:10:13.295Z,7.70
2018-12-25T03:13:12.578Z,7.70
2018-12-25T03:16:12.127Z,7.60
2018-12-25T03:19:11.577Z,7.60
2018-12-25T03:22:14.386Z,7.50
2018-12-25T03:25:26.258Z,7.50
2018-12-25T03:28:25.511Z,7.50
2018-12-25T03:31:25.193Z,7.50
2018-12-25T03:34:24.504Z,7.50
2018-12-25T03:37:23.802Z,7.40
2018-12-25T03:40:24.331Z,7.40
2018-12-25T03:43:28.022Z,7.40
2018-12-25T03:46:27.285Z,7.40
2018-12-25T03:49:31.430Z,7.40
2018-12-25T03:52:30.947Z,7.30
2018-12-25T03:55:30.380Z,7.30
2018-12-25T03:58:29.605Z,7.30
2018-12-25T04:01:29.133Z,7.30
2018-12-25T04:04:29.089Z,7.20
2018-12-25T04:07:38.024Z,7.20
2018-12-25T04:10:37.225Z,7.20
2018-12-25T04:13:38.173Z,7.10
2018-12-25T04:16:37.421Z,7.10
2018-12-25T04:19:37.754Z,7.10
2018-12-25T04:22:37.236Z,7.10
2018-12-25T04:25:42.543Z,7.10
2018-12-25T04:28:41.951Z,7.00
2018-12-25T04:31:41.206Z,7.00
2018-12-25T04:34:40.863Z,7.00
2018-12-25T04:37:43.943Z,7.00
2018-12-25T04:40:43.905Z,6.90
2018-12-25T04:43:55.977Z,6.90
2018-12-25T04:46:55.290Z,6.90
2018-12-25T04:49:58.960Z,6.90
2018-12-25T04:52:58.311Z,6.90
2018-12-25T04:55:58.630Z,6.80
2018-12-25T04:58:58.976Z,6.80
2018-12-25T05:01:58.547Z,6.80
2018-12-25T05:04:57.703Z,6.80
2018-12-25T05:08:01.108Z,6.70
2018-12-25T05:11:01.699Z,6.70
2018-12-25T05:14:01.241Z,6.70
2018-12-25T05:17:00.651Z,6.70
2018-12-25T05:20:00.150Z,6.60
2018-12-25T05:22:59.569Z,6.60
2018-12-25T05:26:01.995Z,6.60
2018-12-25T05:29:01.447Z,6.60
2018-12-25T05:32:00.823Z,6.60
2018-12-25T05:35:00.317Z,6.50
2018-12-25T05:38:02.189Z,6.50
2018-12-25T05:41:03.406Z,6.50
2018-12-25T05:44:03.566Z,6.50
2018-12-25T05:47:07.239Z,6.40
2018-12-25T05:50:07.310Z,6.40
2018-12-25T05:53:07.861Z,6.40
2018-12-25T05:56:07.295Z,6.40
2018-12-25T05:59:11.609Z,6.30
2018-12-25T06:02:10.797Z,6.30
2018-12-25T06:05:11.146Z,6.30
2018-12-25T06:08:10.301Z,6.30
2018-12-25T06:11:13.469Z,6.30
2018-12-25T06:14:13.885Z,6.30
2018-12-25T06:17:13.135Z,6.20
2018-12-25T06:20:12.585Z,6.20
2018-12-25T06:23:11.814Z,6.20
2018-12-25T06:26:11.935Z,6.20
2018-12-25T06:29:11.033Z,6.20
2018-12-25T06:32:10.559Z,6.10
2018-12-25T06:35:09.848Z,6.10
2018-12-25T06:38:10.250Z,6.10
2018-12-25T06:41:09.445Z,6.10
2018-12-25T06:44:09.243Z,6.10
2018-12-25T06:47:08.488Z,6.10
2018-12-25T06:50:07.878Z,6.00
2018-12-25T06:53:07.357Z,6.00
2018-12-25T06:56:06.865Z,6.00
2018-12-25T06:59:06.718Z,6.00
2018-12-25T07:02:08.033Z,6.00
2018-12-25T07:05:08.022Z,6.00
2018-12-25T07:08:07.895Z,6.00
2018-12-25T07:11:08.238Z,6.00
2018-12-25T07:14:08.240Z,6.00
2018-12-25T07:17:14.064Z,6.00
2018-12-25T07:20:13.452Z,6.00
2018-12-25T07:23:17.961Z,6.00
2018-12-25T07:26:20.229Z,6.00
2018-12-25T07:29:19.535Z,6.00
2018-12-25T07:32:18.863Z,6.00
2018-12-25T07:35:18.216Z,6.00
2018-12-25T07:38:21.897Z,6.00
2018-12-25T07:41:21.440Z,6.00
2018-12-25T07:44:26.695Z,6.00
2018-12-25T07:47:26.190Z,6.00
2018-12-25T07:50:26.327Z,6.00
2018-12-25T07:53:26.266Z,6.00
2018-12-25T07:56:26.582Z,6.00
2018-12-25T07:59:25.982Z,6.00
2018-12-25T08:02:28.534Z,6.00
2018-12-25T08:05:27.781Z,6.00
2018-12-25T08:08:27.232Z,6.00
2018-12-25T08:11:26.602Z,6.00
2018-12-25T08:14:25.962Z,6.00
2018-12-25T08:17:25.356Z,6.10
2018-12-25T08:20:28.586Z,6.10
2018-12-25T08:23:28.472Z,6.10
2018-12-25T08:26:27.767Z,6.10
2018-12-25T08:29:28.397Z,6.10
2018-12-25T08:32:27.780Z,6.10
2018-12-25T08:35:28.523Z,6.10
2018-12-25T08:38:28.693Z,6.10
2018-12-25T08:41:28.247Z,6.10
2018-12-25T08:44:28.655Z,6.20
2018-12-25T08:47:28.967Z,6.20
2018-12-25T08:50:40.245Z,6.20
2018-12-25T08:53:40.571Z,6.20
2018-12-25T08:56:40.234Z,6.20
2018-12-25T08:59:43.891Z,6.20
2018-12-25T09:02:44.171Z,6.30
2018-12-25T09:05:49.758Z,6.30
2018-12-25T09:08:49.799Z,6.30
2018-12-25T09:11:55.526Z,6.30
2018-12-25T09:14:55.447Z,6.30
2018-12-25T09:17:54.767Z,6.40
2018-12-25T09:20:54.831Z,6.40
2018-12-25T09:23:54.066Z,6.40
2018-12-25T09:26:56.164Z,6.40
2018-12-25T09:29:57.535Z,6.50
2018-12-25T09:32:57.495Z,6.50
2018-12-25T09:35:58.484Z,6.50
2018-12-25T09:38:57.719Z,6.50
2018-12-25T09:41:57.291Z,6.60
2018-12-25T09:44:56.628Z,6.60
2018-12-25T09:47:56.119Z,6.60
2018-12-25T09:50:56.185Z,6.60
2018-12-25T09:53:56.128Z,6.70
2018-12-25T09:56:55.691Z,6.70
2018-12-25T09:59:56.052Z,6.70
2018-12-25T10:02:55.363Z,6.70
2018-12-25T10:05:54.805Z,6.70
2018-12-25T10:09:00.209Z,6.70
2018-12-25T10:11:59.681Z,6.80
2018-12-25T10:15:02.859Z,6.80
2018-12-25T10:18:02.397Z,6.80
2018-12-25T10:21:01.920Z,6.90
2018-12-25T10:24:01.319Z,6.90
2018-12-25T10:27:02.109Z,6.90
2018-12-25T10:30:02.268Z,6.90
2018-12-25T10:33:01.700Z,6.90
2018-12-25T10:36:01.107Z,7.00
2018-12-25T10:39:00.465Z,7.00
2018-12-25T10:41:59.837Z,7.00
2018-12-25T10:45:05.571Z,7.10
2018-12-25T10:48:04.851Z,7.10
2018-12-25T10:51:04.207Z,7.10
2018-12-25T10:54:03.660Z,7.20
2018-12-25T10:57:03.630Z,7.20
2018-12-25T11:00:03.219Z,7.20
2018-12-25T11:03:02.900Z,7.20
2018-12-25T11:06:02.088Z,7.20
2018-12-25T11:09:02.025Z,7.30
2018-12-25T11:12:02.424Z,7.20
2018-12-25T11:15:01.762Z,7.20
2018-12-25T11:18:01.395Z,7.30
2018-12-25T11:21:04.068Z,7.30
2018-12-25T11:24:04.766Z,7.30
2018-12-25T11:27:04.721Z,7.30
2018-12-25T11:30:05.992Z,7.30
2018-12-25T11:33:05.361Z,7.30
2018-12-25T11:36:04.827Z,7.30
2018-12-25T11:39:08.011Z,7.30
2018-12-25T11:42:07.343Z,7.40
2018-12-25T11:45:08.986Z,7.40
2018-12-25T11:48:09.147Z,7.40
2018-12-25T11:51:09.633Z,7.40
2018-12-25T11:54:10.380Z,7.40
2018-12-25T11:57:10.364Z,7.50
2018-12-25T12:00:10.664Z,7.50
2018-12-25T12:03:10.254Z,7.50
2018-12-25T12:06:09.515Z,7.60
2018-12-25T12:09:09.567Z,7.60
2018-12-25T12:12:09.792Z,7.60
2018-12-25T12:15:09.726Z,7.70
2018-12-25T12:18:09.059Z,7.70
2018-12-25T12:21:09.000Z,7.70
2018-12-25T12:24:08.190Z,7.70
2018-12-25T12:27:08.711Z,7.80
2018-12-25T12:30:08.437Z,7.80
2018-12-25T12:33:09.602Z,7.80
2018-12-25T12:36:10.423Z,7.80
2018-12-25T12:39:09.766Z,7.80
2018-12-25T12:42:10.461Z,7.90
2018-12-25T12:45:09.826Z,7.90
2018-12-25T12:48:09.357Z,7.90
2018-12-25T12:51:08.770Z,7.90
2018-12-25T12:54:10.045Z,8.00
2018-12-25T12:57:09.765Z,8.00
2018-12-25T13:00:10.144Z,8.00
2018-12-25T13:03:09.574Z,8.00
2018-12-25T13:06:11.576Z,8.00
2018-12-25T13:09:10.836Z,8.00
2018-12-25T13:12:10.659Z,8.00
2018-12-25T13:15:14.205Z,8.00
2018-12-25T13:18:14.736Z,8.00
2018-12-25T13:21:14.671Z,8.00
2018-12-25T13:24:13.940Z,8.00
2018-12-25T13:27:14.207Z,8.00
2018-12-25T13:30:18.120Z,8.00
2018-12-25T13:33:17.452Z,8.00
2018-12-25T13:36:19.283Z,8.00
2018-12-25T13:39:18.652Z,8.00
2018-12-25T13:42:20.051Z,8.10
2018-12-25T13:45:19.548Z,8.00
2018-12-25T13:48:23.901Z,8.10
2018-12-25T13:51:23.986Z,8.10
2018-12-25T13:54:24.874Z,8.10
2018-12-25T13:57:24.799Z,8.00
2018-12-25T14:03:54.450Z,8.00
2018-12-25T14:06:54.772Z,8.00
2018-12-25T14:09:54.217Z,8.00
2018-12-25T14:12:57.899Z,8.00
2018-12-25T14:15:57.997Z,8.00
2018-12-25T14:19:00.402Z,7.90
2018-12-25T14:21:59.834Z,7.90
2018-12-25T14:25:02.218Z,7.90
2018-12-25T14:28:01.695Z,7.90
2018-12-25T14:31:01.030Z,7.90
2018-12-25T14:34:01.643Z,7.90
2018-12-25T14:37:04.053Z,7.90
2018-12-25T14:40:04.344Z,7.90
2018-12-25T14:43:03.750Z,7.90
2018-12-25T14:46:03.098Z,7.80
2018-12-25T14:49:07.730Z,7.80
2018-12-25T14:52:07.142Z,7.80
2018-12-25T14:55:06.505Z,7.80
2018-12-25T14:58:07.036Z,7.70
2018-12-25T15:01:06.355Z,7.70
2018-12-25T15:04:05.936Z,7.70
2018-12-25T15:07:06.459Z,7.70
2018-12-25T15:10:06.445Z,7.70
2018-12-25T15:13:05.817Z,7.70
2018-12-25T15:16:05.530Z,7.70
2018-12-25T15:19:04.787Z,7.60
2018-12-25T15:22:04.288Z,7.60
2018-12-25T15:25:08.149Z,7.60
2018-12-25T15:28:09.446Z,7.60
2018-12-25T15:31:08.772Z,7.50
2018-12-25T15:34:08.214Z,7.50
2018-12-25T15:37:08.875Z,7.50
2018-12-25T15:40:09.123Z,7.50
2018-12-25T15:43:15.026Z,7.50
2018-12-25T15:46:14.880Z,7.40
2018-12-25T15:49:15.262Z,7.40
2018-12-25T15:52:14.479Z,7.40
2018-12-25T15:55:15.823Z,7.40
2018-12-25T15:58:19.317Z,7.40
2018-12-25T16:01:18.643Z,7.40
2018-12-25T16:04:20.038Z,7.30
2018-12-25T16:07:19.868Z,7.30
2018-12-25T16:10:19.267Z,7.30
2018-12-25T16:13:31.315Z,7.30
2018-12-25T16:16:31.734Z,7.30
2018-12-25T16:19:31.167Z,7.20
2018-12-25T16:22:38.743Z,7.20
2018-12-25T16:25:38.638Z,7.20
2018-12-25T16:28:38.609Z,7.20
2018-12-25T16:31:38.037Z,7.20
2018-12-25T16:34:38.578Z,7.10
2018-12-25T16:37:38.821Z,7.10
2018-12-25T16:40:38.177Z,7.10
2018-12-25T16:43:37.594Z,7.10
2018-12-25T16:46:39.245Z,7.10
2018-12-25T16:49:40.922Z,7.10
2018-12-25T16:52:42.852Z,7.10
2018-12-25T16:55:42.542Z,7.00
2018-12-25T16:58:42.767Z,7.00
2018-12-25T17:01:42.320Z,7.00
2018-12-25T17:04:41.913Z,6.90
2018-12-25T17:07:41.467Z,7.00
2018-12-25T17:10:40.738Z,6.90
2018-12-25T17:13:40.155Z,6.90
2018-12-25T17:16:43.263Z,6.90
2018-12-25T17:19:42.927Z,6.90
2018-12-25T17:22:42.502Z,6.90
2018-12-25T17:25:42.985Z,6.80
2018-12-25T17:28:42.595Z,6.80
2018-12-25T17:31:42.339Z,6.80
2018-12-25T17:34:46.843Z,6.80
2018-12-25T17:37:47.472Z,6.80
2018-12-25T17:40:48.378Z,6.80
2018-12-25T17:43:47.695Z,6.80
2018-12-25T17:46:47.526Z,6.70
2018-12-25T17:49:47.135Z,6.70
2018-12-25T17:52:48.613Z,6.70
2018-12-25T17:55:48.746Z,6.70
2018-12-25T17:58:49.576Z,6.70
2018-12-25T18:01:50.090Z,6.60
2018-12-25T18:04:49.359Z,6.60
2018-12-25T18:07:53.286Z,6.60
2018-12-25T18:10:54.714Z,6.60
2018-12-25T18:13:53.948Z,6.60
2018-12-25T18:16:54.065Z,6.50
2018-12-25T18:19:53.452Z,6.50
2018-12-25T18:22:54.421Z,6.50
2018-12-25T18:25:54.100Z,6.50
2018-12-25T18:28:55.694Z,6.50
2018-12-25T18:31:54.906Z,6.50
2018-12-25T18:34:54.653Z,6.50
2018-12-25T18:37:53.872Z,6.50
2018-12-25T18:40:55.907Z,6.40
2018-12-25T18:43:55.950Z,6.40
2018-12-25T18:46:58.299Z,6.40
2018-12-25T18:49:57.542Z,6.40
2018-12-25T18:52:57.377Z,6.40
2018-12-25T18:55:57.230Z,6.40
2018-12-25T18:58:57.537Z,6.40
2018-12-25T19:01:56.933Z,6.30
2018-12-25T19:04:57.723Z,6.30
2018-12-25T19:07:57.645Z,6.30
2018-12-25T19:10:57.945Z,6.30
2018-12-25T19:13:58.352Z,6.30
2018-12-25T19:16:57.802Z,6.30
2018-12-25T19:19:57.902Z,6.30
2018-12-25T19:22:57.841Z,6.30
2018-12-25T19:25:59.115Z,6.20
2018-12-25T19:28:59.502Z,6.20
2018-12-25T19:31:58.874Z,6.30
2018-12-25T19:34:58.449Z,6.20
2018-12-25T19:37:57.881Z,6.20
2018-12-25T19:41:00.257Z,6.20
2018-12-25T19:44:00.722Z,6.10
2018-12-25T19:47:00.137Z,6.20
2018-12-25T19:50:00.262Z,6.10
2018-12-25T19:53:00.304Z,6.10
2018-12-25T19:56:01.626Z,6.10
2018-12-25T19:59:01.880Z,6.10
2018-12-25T20:02:01.676Z,6.10
2018-12-25T20:08:17.922Z,6.10
2018-12-25T20:13:34.012Z,6.10
2018-12-25T20:18:46.182Z,6.00
2018-12-25T20:24:08.332Z,6.10
2018-12-25T20:27:21.002Z,6.00
2018-12-25T20:31:05.600Z,6.00
2018-12-25T20:34:37.440Z,6.00
2018-12-25T20:40:11.636Z,6.00
2018-12-25T20:47:33.950Z,6.00
2018-12-25T20:52:08.406Z,6.00
2018-12-25T20:57:23.242Z,6.00
2018-12-25T21:00:34.383Z,5.90
2018-12-25T21:06:06.233Z,5.90
2018-12-25T21:09:16.506Z,5.90
2018-12-25T21:14:43.364Z,5.90
2018-12-25T21:18:12.829Z,5.90
2018-12-25T21:21:38.734Z,5.90
2018-12-25T21:24:49.684Z,5.90
2018-12-25T21:27:47.991Z,5.90
2018-12-25T21:30:48.711Z,5.80
2018-12-25T21:33:48.015Z,5.80
2018-12-25T21:36:49.963Z,5.80
2018-12-25T21:39:49.913Z,5.80
2018-12-25T21:42:50.674Z,5.80
2018-12-25T21:45:50.271Z,5.80
2018-12-25T21:48:50.076Z,5.80
2018-12-25T21:51:49.507Z,5.80
2018-12-25T21:54:49.985Z,5.80
2018-12-25T21:57:51.681Z,5.80
2018-12-25T22:00:52.293Z,5.80
2018-12-25T22:03:51.702Z,5.80
2018-12-25T22:06:52.054Z,5.80
2018-12-25T22:09:52.122Z,5.80
2018-12-25T22:12:51.516Z,5.80
2018-12-25T22:15:51.038Z,5.80
2018-12-25T22:18:51.406Z,5.80
2018-12-25T22:21:50.684Z,5.70
2018-12-25T22:24:53.663Z,5.70
2018-12-25T22:27:53.337Z,5.70
2018-12-25T22:30:56.210Z,5.70
2018-12-25T22:33:55.589Z,5.70
2018-12-25T22:36:55.079Z,5.70
2018-12-25T22:39:54.481Z,5.70
2018-12-25T22:42:54.844Z,5.70
2018-12-25T22:45:54.134Z,5.70
2018-12-25T22:48:54.897Z,5.70
2018-12-25T22:51:54.968Z,5.70
2018-12-25T22:54:54.401Z,5.70
2018-12-25T22:57:54.569Z,5.60
2018-12-25T23:00:54.632Z,5.60
2018-12-25T23:03:56.010Z,5.60
2018-12-25T23:06:57.623Z,5.60
2018-12-25T23:09:56.862Z,5.60
2018-12-25T23:13:00.323Z,5.60
2018-12-25T23:16:00.721Z,5.60
2018-12-25T23:19:00.214Z,5.60
2018-12-25T23:22:03.394Z,5.60
2018-12-25T23:25:03.033Z,5.50
2018-12-25T23:28:08.675Z,5.50
2018-12-25T23:31:08.792Z,5.50
2018-12-25T23:34:08.763Z,5.50
2018-12-25T23:37:09.198Z,5.50
2018-12-25T23:40:14.467Z,5.50
2018-12-25T23:43:14.394Z,5.50
2018-12-25T23:46:13.823Z,5.50
2018-12-25T23:49:13.627Z,5.50
2018-12-25T23:52:14.238Z,5.50
2018-12-25T23:55:14.197Z,5.50
2018-12-25T23:58:14.757Z,5.50
